Time;durP1;ratioP1;P1;durP2;ratioP2;P2;SDS_P1;SDS_P2;PMS_P1;PMS_P2;Temp;Humidity;BMP_temperature;BMP_pressure;BME280_temperature;BME280_humidity;BME280_pressure;Samples;Min_cycle;Max_cycle;Signal;HPM_P1;HPM_P2
2021/03/01 00:00:00;;;;;;;24.33;7.78;;;;;;;;;;4986776;28;20033;-59
2021/03/01 00:02:25;;;;;;;31.95;7.07;;;;;;;;;;5022378;28;20040;-59
2021/03/01 00:04:55;;;;;;;28.90;6.75;;;;;;;;;;4987638;28;20049;-60
2021/03/01 00:07:21;;;;;;;37.30;7.97;;;;;;;;;;4989683;28;20868;-59
2021/03/01 00:09:46;;;;;;;29.33;7.28;;;;;;;;;;5004403;28;20048;-59
2021/03/01 00:12:14;;;;;;;25.27;6.43;;;;;;;;;;5006531;28;20053;-60
2021/03/01 00:14:44;;;;;;;17.02;5.60;;;;;;;;;;4992510;28;20079;-59
2021/03/01 00:17:10;;;;;;;54.40;7.22;;;;;;;;;;5023126;28;20044;-61
2021/03/01 00:19:37;;;;;;;33.55;5.43;;;;;;;;;;5002914;28;20040;-61
2021/03/01 00:22:02;;;;;;;35.53;6.80;;;;;;;;;;5024991;28;20091;-60
2021/03/01 00:24:28;;;;;;;35.20;5.25;;;;;;;;;;5002646;28;20045;-60
2021/03/01 00:26:53;;;;;;;32.97;6.53;;;;;;;;;;5005760;28;20481;-60
2021/03/01 00:29:21;;;;;;;26.05;5.63;;;;;;;;;;4989472;28;20029;-59
2021/03/01 00:31:49;;;;;;;26.08;5.40;;;;;;;;;;4993603;28;20223;-59
2021/03/01 00:34:15;;;;;;;19.88;4.43;;;;;;;;;;5007431;28;21040;-59
2021/03/01 00:36:43;;;;;;;12.45;4.13;;;;;;;;;;5021108;28;20029;-60
2021/03/01 00:39:10;;;;;;;16.75;4.10;;;;;;;;;;5025045;28;20035;-60
2021/03/01 00:41:39;;;;;;;13.82;5.03;;;;;;;;;;5005522;28;21095;-60
2021/03/01 00:44:04;;;;;;;22.83;5.53;;;;;;;;;;5024710;28;20127;-61
2021/03/01 00:46:34;;;;;;;29.10;5.28;;;;;;;;;;5022877;28;20083;-61
2021/03/01 00:48:59;;;;;;;14.55;5.35;;;;;;;;;;5006171;28;20036;-59
2021/03/01 00:51:27;;;;;;;17.45;4.28;;;;;;;;;;5023547;28;20037;-59
2021/03/01 00:53:53;;;;;;;34.00;5.05;;;;;;;;;;5001519;28;20370;-60
2021/03/01 00:56:21;;;;;;;20.02;4.70;;;;;;;;;;5017540;28;20134;-59
2021/03/01 00:58:47;;;;;;;17.80;4.15;;;;;;;;;;5003518;28;20421;-59
2021/03/01 01:01:15;;;;;;;12.98;4.32;;;;;;;;;;5023237;28;20029;-60
2021/03/01 01:03:40;;;;;;;22.65;4.90;;;;;;;;;;5021978;28;20060;-59
2021/03/01 01:06:09;;;;;;;31.60;4.72;;;;;;;;;;5004625;28;20041;-60
2021/03/01 01:08:37;;;;;;;25.60;4.88;;;;;;;;;;5021327;28;20729;-60
2021/03/01 01:11:02;;;;;;;31.02;4.70;;;;;;;;;;4986655;28;20182;-60
2021/03/01 01:13:28;;;;;;;15.50;4.22;;;;;;;;;;4983986;28;20060;-60
2021/03/01 01:15:56;;;;;;;23.95;4.32;;;;;;;;;;5022684;28;20033;-59
2021/03/01 01:18:22;;;;;;;18.60;4.03;;;;;;;;;;5024297;28;20033;-59
2021/03/01 01:20:47;;;;;;;10.80;3.63;;;;;;;;;;5023170;28;20043;-59
2021/03/01 01:23:13;;;;;;;9.07;3.47;;;;;;;;;;5009986;28;20045;-60
2021/03/01 01:25:41;;;;;;;9.38;3.28;;;;;;;;;;5006648;28;20044;-59
2021/03/01 01:28:07;;;;;;;15.70;4.32;;;;;;;;;;5007038;28;20036;-60
2021/03/01 01:30:32;;;;;;;22.10;4.88;;;;;;;;;;5006455;28;20029;-60
2021/03/01 01:33:00;;;;;;;26.38;4.60;;;;;;;;;;4991334;28;20029;-60
2021/03/01 01:35:28;;;;;;;28.90;3.90;;;;;;;;;;5018659;28;21057;-60
2021/03/01 01:37:58;;;;;;;26.73;4.93;;;;;;;;;;4993717;28;21034;-59
2021/03/01 01:40:28;;;;;;;49.65;4.70;;;;;;;;;;5024864;28;20665;-60
2021/03/01 01:42:56;;;;;;;16.92;3.25;;;;;;;;;;5023483;28;20067;-59
2021/03/01 01:45:22;;;;;;;15.77;3.35;;;;;;;;;;4976083;28;20042;-61
2021/03/01 01:47:49;;;;;;;13.52;3.95;;;;;;;;;;5024289;28;21883;-60
2021/03/01 01:50:17;;;;;;;12.88;3.45;;;;;;;;;;5006642;28;20451;-59
2021/03/01 01:52:46;;;;;;;17.25;3.78;;;;;;;;;;5006436;28;20417;-60
2021/03/01 01:55:15;;;;;;;14.85;4.43;;;;;;;;;;5023594;28;20053;-60
2021/03/01 01:57:43;;;;;;;16.88;3.55;;;;;;;;;;5006530;28;20163;-61
2021/03/01 02:00:21;;;;;;;16.80;3.85;;;;;;;;;;5023338;28;20032;-59
2021/03/01 02:02:49;;;;;;;21.38;4.95;;;;;;;;;;5023423;28;20037;-59
2021/03/01 02:05:17;;;;;;;11.95;4.13;;;;;;;;;;4984447;28;20060;-60
2021/03/01 02:07:53;;;;;;;12.32;5.15;;;;;;;;;;5025538;28;20028;-59
2021/03/01 02:10:27;;;;;;;16.33;4.87;;;;;;;;;;5024282;28;20171;-60
2021/03/01 02:12:52;;;;;;;24.05;4.78;;;;;;;;;;5007250;28;20295;-59
2021/03/01 02:15:27;;;;;;;29.65;5.03;;;;;;;;;;5024649;28;20033;-59
2021/03/01 02:17:55;;;;;;;26.75;5.53;;;;;;;;;;5003307;28;20039;-60
2021/03/01 02:20:23;;;;;;;22.13;5.95;;;;;;;;;;5004582;28;20120;-59
2021/03/01 02:22:49;;;;;;;22.08;5.40;;;;;;;;;;5006666;28;20113;-59
2021/03/01 02:25:18;;;;;;;30.90;6.00;;;;;;;;;;4974144;28;20037;-60
2021/03/01 02:27:51;;;;;;;16.20;5.43;;;;;;;;;;5005524;28;20101;-59
2021/03/01 02:30:38;;;;;;;20.85;4.25;;;;;;;;;;5007923;28;20169;-59
2021/03/01 02:33:08;;;;;;;29.07;5.00;;;;;;;;;;5020415;28;20581;-59
2021/03/01 02:35:37;;;;;;;16.88;5.68;;;;;;;;;;5024084;28;20069;-60
2021/03/01 02:38:05;;;;;;;22.40;5.35;;;;;;;;;;5025118;28;21026;-60
2021/03/01 02:40:35;;;;;;;27.33;5.75;;;;;;;;;;5006097;28;20041;-60
2021/03/01 02:43:03;;;;;;;19.55;5.18;;;;;;;;;;5023943;28;20527;-60
2021/03/01 02:45:31;;;;;;;20.30;6.20;;;;;;;;;;4989470;28;20988;-60
2021/03/01 02:48:01;;;;;;;22.88;5.90;;;;;;;;;;5007122;28;20136;-60
2021/03/01 02:50:27;;;;;;;27.17;5.38;;;;;;;;;;5006323;28;20047;-60
2021/03/01 02:52:53;;;;;;;18.67;5.93;;;;;;;;;;5025841;28;20025;-59
2021/03/01 02:55:20;;;;;;;16.80;5.95;;;;;;;;;;5021310;28;20044;-60
2021/03/01 02:57:46;;;;;;;30.33;5.22;;;;;;;;;;5024402;28;20131;-60
2021/03/01 03:00:14;;;;;;;18.58;6.32;;;;;;;;;;4990551;28;20559;-60
2021/03/01 03:02:43;;;;;;;17.80;5.00;;;;;;;;;;5023003;28;20035;-59
2021/03/01 03:05:09;;;;;;;29.00;6.78;;;;;;;;;;5005619;28;20045;-60
2021/03/01 03:07:35;;;;;;;17.85;5.60;;;;;;;;;;5025618;28;20021;-60
2021/03/01 03:10:05;;;;;;;14.90;5.75;;;;;;;;;;5024244;28;20037;-59
2021/03/01 03:12:31;;;;;;;14.35;5.20;;;;;;;;;;5005717;28;20025;-59
2021/03/01 03:15:00;;;;;;;25.65;4.97;;;;;;;;;;5006152;28;20044;-59
2021/03/01 03:17:31;;;;;;;21.88;5.03;;;;;;;;;;5004927;28;20044;-59
2021/03/01 03:19:56;;;;;;;22.83;5.05;;;;;;;;;;5005923;28;20025;-59
2021/03/01 03:22:22;;;;;;;25.83;5.05;;;;;;;;;;5005490;28;20902;-60
2021/03/01 03:24:48;;;;;;;18.92;5.18;;;;;;;;;;5004289;28;20020;-60
2021/03/01 03:27:16;;;;;;;16.30;3.72;;;;;;;;;;5023406;28;20041;-59
2021/03/01 03:29:43;;;;;;;17.88;5.07;;;;;;;;;;5001360;28;20090;-59
2021/03/01 03:32:11;;;;;;;16.42;5.18;;;;;;;;;;5023974;28;20971;-60
2021/03/01 03:34:40;;;;;;;16.80;4.72;;;;;;;;;;5024008;28;20045;-60
2021/03/01 03:37:13;;;;;;;18.35;5.97;;;;;;;;;;5018953;28;20029;-59
2021/03/01 03:39:42;;;;;;;15.38;4.95;;;;;;;;;;5005017;28;20041;-60
2021/03/01 03:42:09;;;;;;;19.40;4.60;;;;;;;;;;5023142;28;20024;-60
2021/03/01 03:44:36;;;;;;;14.68;5.32;;;;;;;;;;5022557;28;20044;-58
2021/03/01 03:47:06;;;;;;;13.13;4.63;;;;;;;;;;5005207;28;20144;-60
2021/03/01 03:49:36;;;;;;;14.50;3.95;;;;;;;;;;5001006;28;20029;-59
2021/03/01 03:52:07;;;;;;;16.27;4.28;;;;;;;;;;5004732;28;20579;-60
2021/03/01 03:54:37;;;;;;;14.70;4.35;;;;;;;;;;4986812;28;20033;-59
2021/03/01 03:57:07;;;;;;;14.75;3.97;;;;;;;;;;5001708;28;20056;-59
2021/03/01 03:59:33;;;;;;;12.23;4.32;;;;;;;;;;5022286;28;20044;-59
2021/03/01 04:02:01;;;;;;;13.48;5.00;;;;;;;;;;5021721;28;20037;-61
2021/03/01 04:04:29;;;;;;;14.40;5.25;;;;;;;;;;4988894;28;20041;-59
2021/03/01 04:06:57;;;;;;;10.25;4.55;;;;;;;;;;5019529;28;20086;-59
2021/03/01 04:09:24;;;;;;;13.63;3.90;;;;;;;;;;5004659;28;20048;-60
2021/03/01 04:11:51;;;;;;;12.38;4.32;;;;;;;;;;5004452;28;20029;-60
2021/03/01 04:14:24;;;;;;;18.65;4.70;;;;;;;;;;5023201;28;20044;-60
2021/03/01 04:16:54;;;;;;;9.95;4.15;;;;;;;;;;5000574;28;20033;-59
2021/03/01 04:19:25;;;;;;;11.45;4.82;;;;;;;;;;5022477;28;20037;-60
2021/03/01 04:21:56;;;;;;;10.25;4.10;;;;;;;;;;5001462;28;20889;-59
2021/03/01 04:24:23;;;;;;;12.07;3.85;;;;;;;;;;5021530;28;20025;-59
2021/03/01 04:26:54;;;;;;;9.25;3.42;;;;;;;;;;5000792;28;20037;-60
2021/03/01 04:29:22;;;;;;;10.88;4.15;;;;;;;;;;5003108;28;20939;-60
2021/03/01 04:31:48;;;;;;;9.00;3.72;;;;;;;;;;4988355;28;20045;-61
2021/03/01 04:34:19;;;;;;;11.82;4.25;;;;;;;;;;5022559;28;20041;-60
2021/03/01 04:36:44;;;;;;;12.50;3.78;;;;;;;;;;5001158;28;20052;-59
2021/03/01 04:39:12;;;;;;;10.05;4.25;;;;;;;;;;5005463;28;20032;-59
2021/03/01 04:41:40;;;;;;;13.85;4.70;;;;;;;;;;5004743;28;20025;-60
2021/03/01 04:44:09;;;;;;;7.88;3.75;;;;;;;;;;5022565;28;20357;-60
2021/03/01 04:46:35;;;;;;;12.27;4.38;;;;;;;;;;5005623;28;20500;-60
2021/03/01 04:49:08;;;;;;;10.68;4.13;;;;;;;;;;5004824;28;20033;-60
2021/03/01 04:51:36;;;;;;;10.93;4.30;;;;;;;;;;4986484;28;20060;-60
2021/03/01 04:54:02;;;;;;;9.00;3.85;;;;;;;;;;5004605;28;20033;-60
2021/03/01 04:56:27;;;;;;;8.00;3.60;;;;;;;;;;5021225;28;20827;-60
2021/03/01 04:58:58;;;;;;;9.57;3.80;;;;;;;;;;5024017;28;20045;-61
2021/03/01 05:01:29;;;;;;;8.20;3.70;;;;;;;;;;5003304;28;20264;-60
2021/03/01 05:04:00;;;;;;;11.70;3.78;;;;;;;;;;5005509;28;20075;-60
2021/03/01 05:06:26;;;;;;;9.57;3.85;;;;;;;;;;5002673;28;20970;-60
2021/03/01 05:08:54;;;;;;;9.05;3.20;;;;;;;;;;5001965;28;20033;-61
2021/03/01 05:11:28;;;;;;;7.82;3.60;;;;;;;;;;4988751;28;20162;-59
2021/03/01 05:13:56;;;;;;;7.80;3.60;;;;;;;;;;5003294;28;20136;-60
2021/03/01 05:16:23;;;;;;;11.30;4.10;;;;;;;;;;5005012;28;20033;-60
2021/03/01 05:18:48;;;;;;;11.57;4.15;;;;;;;;;;4985121;28;20643;-60
2021/03/01 05:21:16;;;;;;;9.82;4.53;;;;;;;;;;5003743;28;20033;-61
2021/03/01 05:23:43;;;;;;;8.80;3.78;;;;;;;;;;5020920;28;20028;-59
2021/03/01 05:26:13;;;;;;;10.45;4.35;;;;;;;;;;5002470;28;20044;-61
2021/03/01 05:28:40;;;;;;;7.93;3.80;;;;;;;;;;5003755;28;20017;-60
2021/03/01 05:31:12;;;;;;;8.75;3.63;;;;;;;;;;5022801;28;20040;-60
2021/03/01 05:33:38;;;;;;;9.15;3.53;;;;;;;;;;5004254;28;20107;-61
2021/03/01 05:36:04;;;;;;;10.45;3.50;;;;;;;;;;5021836;28;20025;-61
2021/03/01 05:38:31;;;;;;;9.13;4.20;;;;;;;;;;5022820;28;20076;-61
2021/03/01 05:41:01;;;;;;;8.32;4.00;;;;;;;;;;5004724;28;20274;-61
2021/03/01 05:43:27;;;;;;;9.25;3.75;;;;;;;;;;5004484;28;20096;-60
2021/03/01 05:45:53;;;;;;;10.32;4.38;;;;;;;;;;5003967;28;20495;-60
2021/03/01 05:48:21;;;;;;;9.60;3.58;;;;;;;;;;5021792;28;20036;-60
2021/03/01 05:50:51;;;;;;;8.57;3.78;;;;;;;;;;5004409;28;20112;-59
2021/03/01 05:53:24;;;;;;;10.02;4.18;;;;;;;;;;5022103;28;20037;-61
2021/03/01 05:55:49;;;;;;;12.80;4.47;;;;;;;;;;4985048;28;20040;-60
2021/03/01 05:58:15;;;;;;;10.43;4.72;;;;;;;;;;5004411;28;20024;-60
2021/03/01 06:00:43;;;;;;;13.35;4.22;;;;;;;;;;5021874;28;20087;-60
2021/03/01 06:03:08;;;;;;;19.52;5.00;;;;;;;;;;5022484;28;20921;-60
2021/03/01 06:05:34;;;;;;;12.48;4.70;;;;;;;;;;5024222;28;22127;-59
2021/03/01 06:08:04;;;;;;;16.88;4.95;;;;;;;;;;5026183;28;20491;-61
2021/03/01 06:10:35;;;;;;;21.42;5.45;;;;;;;;;;5004535;28;20045;-60
2021/03/01 06:13:05;;;;;;;18.88;4.75;;;;;;;;;;4987090;28;20056;-60
2021/03/01 06:15:36;;;;;;;13.63;5.57;;;;;;;;;;5025063;28;20114;-60
2021/03/01 06:18:06;;;;;;;16.35;4.05;;;;;;;;;;5007876;28;20056;-59
2021/03/01 06:20:32;;;;;;;21.45;4.47;;;;;;;;;;5024627;28;20029;-60
2021/03/01 06:22:58;;;;;;;18.42;4.53;;;;;;;;;;5024600;28;20021;-61
2021/03/01 06:25:26;;;;;;;18.02;4.90;;;;;;;;;;5005318;28;20488;-59
2021/03/01 06:27:54;;;;;;;11.80;4.25;;;;;;;;;;5008417;28;20095;-60
2021/03/01 06:30:24;;;;;;;15.45;3.58;;;;;;;;;;5004810;28;20345;-61
2021/03/01 06:33:22;;;;;;;16.00;3.90;;;;;;;;;;5006065;28;20039;-60
2021/03/01 06:35:52;;;;;;;9.35;3.42;;;;;;;;;;4989141;28;21985;-60
2021/03/01 06:38:22;;;;;;;13.80;3.78;;;;;;;;;;4990402;28;20041;-59
2021/03/01 06:41:06;;;;;;;15.80;4.70;;;;;;;;;;5025474;28;20048;-59
2021/03/01 06:43:34;;;;;;;10.55;4.03;;;;;;;;;;4986332;28;20048;-58
2021/03/01 06:46:13;;;;;;;17.15;3.70;;;;;;;;;;4974532;28;20518;-59
2021/03/01 06:48:39;;;;;;;14.23;4.38;;;;;;;;;;4989071;28;20029;-59
2021/03/01 06:51:05;;;;;;;15.60;3.95;;;;;;;;;;5008469;28;20036;-59
2021/03/01 06:53:34;;;;;;;16.83;4.70;;;;;;;;;;5006206;28;20053;-59
2021/03/01 06:55:59;;;;;;;10.85;4.00;;;;;;;;;;5006118;28;20032;-60
2021/03/01 06:58:27;;;;;;;8.57;3.35;;;;;;;;;;5005668;28;20040;-60
2021/03/01 07:01:03;;;;;;;14.35;4.15;;;;;;;;;;5024350;28;20039;-59
2021/03/01 07:03:29;;;;;;;13.10;3.92;;;;;;;;;;5025196;28;20057;-59
2021/03/01 07:05:56;;;;;;;14.55;4.40;;;;;;;;;;5021541;28;20036;-59
2021/03/01 07:08:31;;;;;;;10.93;4.40;;;;;;;;;;4989782;28;20025;-59
2021/03/01 07:10:59;;;;;;;23.10;4.57;;;;;;;;;;5023893;28;20049;-59
2021/03/01 07:13:28;;;;;;;15.00;4.32;;;;;;;;;;5006591;28;20846;-59
2021/03/01 07:15:57;;;;;;;10.45;4.32;;;;;;;;;;4983719;28;20040;-59
2021/03/01 07:18:23;;;;;;;25.42;4.47;;;;;;;;;;5023336;28;20116;-59
2021/03/01 07:20:51;;;;;;;19.75;4.57;;;;;;;;;;4987407;28;20043;-59
2021/03/01 07:23:19;;;;;;;11.10;4.53;;;;;;;;;;5006578;28;20037;-59
2021/03/01 07:25:49;;;;;;;16.55;4.82;;;;;;;;;;5020993;28;20124;-59
2021/03/01 07:28:18;;;;;;;24.23;6.88;;;;;;;;;;5005825;28;20041;-60
2021/03/01 07:30:48;;;;;;;38.65;6.25;;;;;;;;;;5021147;28;20059;-60
2021/03/01 07:33:16;;;;;;;35.80;7.85;;;;;;;;;;5005502;28;20036;-59
2021/03/01 07:35:46;;;;;;;28.92;8.10;;;;;;;;;;5003001;28;20194;-59
2021/03/01 07:38:12;;;;;;;35.47;7.55;;;;;;;;;;5022274;28;21867;-58
2021/03/01 07:40:38;;;;;;;35.03;8.65;;;;;;;;;;5022203;28;20048;-59
2021/03/01 07:43:04;;;;;;;30.15;7.22;;;;;;;;;;5007001;28;20040;-59
2021/03/01 07:45:31;;;;;;;42.65;6.40;;;;;;;;;;5021041;28;20156;-58
2021/03/01 07:48:00;;;;;;;27.90;7.30;;;;;;;;;;5004668;28;20041;-60
2021/03/01 07:50:45;;;;;;;34.90;6.72;;;;;;;;;;5018787;28;20144;-59
2021/03/01 07:53:40;;;;;;;23.50;6.60;;;;;;;;;;5003667;28;20036;-59
2021/03/01 07:56:30;;;;;;;52.28;6.82;;;;;;;;;;4976200;28;20051;-59
2021/03/01 07:58:58;;;;;;;21.13;4.90;;;;;;;;;;5021159;28;20757;-58
2021/03/01 08:01:27;;;;;;;15.32;5.10;;;;;;;;;;5018845;28;20056;-58
2021/03/01 08:03:53;;;;;;;15.50;4.70;;;;;;;;;;5020626;28;20037;-59
2021/03/01 08:06:24;;;;;;;19.52;5.85;;;;;;;;;;5010213;28;20692;-58
2021/03/01 08:08:51;;;;;;;18.00;5.70;;;;;;;;;;5019646;28;20026;-58
2021/03/01 08:11:35;;;;;;;21.10;5.85;;;;;;;;;;5000329;28;20069;-58
2021/03/01 08:14:04;;;;;;;21.20;7.10;;;;;;;;;;4988230;28;21111;-60
2021/03/01 08:16:32;;;;;;;31.20;7.30;;;;;;;;;;5016913;28;20034;-58
2021/03/01 08:19:02;;;;;;;30.40;8.25;;;;;;;;;;5013079;28;20098;-58
2021/03/01 08:21:47;;;;;;;31.23;8.55;;;;;;;;;;4992570;28;20044;-60
2021/03/01 08:24:36;;;;;;;40.58;9.75;;;;;;;;;;4978752;28;20082;-60
2021/03/01 08:27:22;;;;;;;35.38;9.88;;;;;;;;;;4984056;28;20162;-58
2021/03/01 08:30:09;;;;;;;33.63;10.07;;;;;;;;;;4997633;28;20118;-58
2021/03/01 08:32:36;;;;;;;29.75;8.32;;;;;;;;;;5010755;28;20119;-59
2021/03/01 08:35:23;;;;;;;26.02;7.43;;;;;;;;;;4982179;28;20123;-58
2021/03/01 08:37:49;;;;;;;35.60;9.27;;;;;;;;;;5003533;28;20044;-59
2021/03/01 08:40:22;;;;;;;27.95;9.68;;;;;;;;;;5014482;28;20021;-60
2021/03/01 08:42:53;;;;;;;43.60;10.23;;;;;;;;;;4986895;28;20032;-61
2021/03/01 08:45:22;;;;;;;46.58;9.45;;;;;;;;;;4996975;28;20452;-59
2021/03/01 08:47:49;;;;;;;51.53;9.77;;;;;;;;;;4997987;28;20109;-59
2021/03/01 08:50:17;;;;;;;26.27;7.70;;;;;;;;;;4973295;28;20039;-60
2021/03/01 08:52:49;;;;;;;28.70;7.72;;;;;;;;;;4990417;28;20033;-58
2021/03/01 08:55:19;;;;;;;31.55;7.97;;;;;;;;;;5018275;28;20032;-58
2021/03/01 08:57:54;;;;;;;21.83;6.60;;;;;;;;;;4989467;28;20111;-59
2021/03/01 09:00:20;;;;;;;17.77;6.28;;;;;;;;;;5004574;28;20033;-58
2021/03/01 09:02:46;;;;;;;16.48;5.30;;;;;;;;;;4998180;28;20068;-59
2021/03/01 09:05:11;;;;;;;14.93;4.65;;;;;;;;;;4982773;28;20518;-58
2021/03/01 09:07:42;;;;;;;8.30;3.00;;;;;;;;;;4970065;28;20032;-59
2021/03/01 09:10:11;;;;;;;9.15;3.20;;;;;;;;;;5013594;28;20140;-59
2021/03/01 09:12:37;;;;;;;7.40;3.05;;;;;;;;;;5017104;28;20055;-59
2021/03/01 09:15:04;;;;;;;9.00;3.05;;;;;;;;;;4991760;28;20133;-59
2021/03/01 09:17:29;;;;;;;6.70;2.60;;;;;;;;;;4979781;28;20041;-60
2021/03/01 09:19:55;;;;;;;9.60;3.67;;;;;;;;;;4983108;28;20130;-59
2021/03/01 09:22:25;;;;;;;8.23;3.08;;;;;;;;;;5010771;28;20152;-59
2021/03/01 09:24:53;;;;;;;3.75;2.10;;;;;;;;;;5016457;28;20037;-63
2021/03/01 09:27:33;;;;;;;5.97;2.35;;;;;;;;;;4971217;28;20037;-60
2021/03/01 09:30:03;;;;;;;5.50;2.75;;;;;;;;;;5021765;28;20854;-60
2021/03/01 09:32:28;;;;;;;6.25;3.13;;;;;;;;;;5004115;28;20029;-60
2021/03/01 09:34:54;;;;;;;6.82;2.72;;;;;;;;;;5021171;28;20534;-58
2021/03/01 09:37:24;;;;;;;9.82;3.35;;;;;;;;;;4971868;28;20033;-59
2021/03/01 09:39:49;;;;;;;14.50;3.60;;;;;;;;;;5005380;28;20052;-59
2021/03/01 09:42:20;;;;;;;8.52;3.28;;;;;;;;;;5006917;28;20034;-59
2021/03/01 09:44:48;;;;;;;9.18;3.92;;;;;;;;;;5023695;28;20941;-59
2021/03/01 09:47:14;;;;;;;9.05;3.58;;;;;;;;;;5024822;28;20064;-61
2021/03/01 09:49:40;;;;;;;7.72;3.25;;;;;;;;;;5006278;28;21084;-59
2021/03/01 09:52:08;;;;;;;6.30;3.10;;;;;;;;;;5023860;28;20043;-59
2021/03/01 09:54:34;;;;;;;8.90;3.65;;;;;;;;;;5008694;28;20151;-58
2021/03/01 09:57:04;;;;;;;9.98;3.75;;;;;;;;;;5006844;28;20970;-61
2021/03/01 09:59:29;;;;;;;9.63;3.80;;;;;;;;;;5025835;28;20446;-61
2021/03/01 10:02:11;;;;;;;6.32;3.42;;;;;;;;;;5024501;28;21482;-60
2021/03/01 10:04:37;;;;;;;7.72;3.00;;;;;;;;;;5007683;28;20045;-58
2021/03/01 10:07:16;;;;;;;8.60;2.58;;;;;;;;;;5023030;28;20039;-61
2021/03/01 10:09:43;;;;;;;5.43;2.72;;;;;;;;;;5022666;28;20624;-60
2021/03/01 10:12:08;;;;;;;3.20;2.00;;;;;;;;;;4991557;28;20037;-59
2021/03/01 10:14:36;;;;;;;4.05;2.22;;;;;;;;;;5025533;28;20194;-59
2021/03/01 10:17:18;;;;;;;5.35;2.03;;;;;;;;;;4985056;28;21102;-59
2021/03/01 10:19:44;;;;;;;6.72;2.22;;;;;;;;;;5024647;28;20095;-59
2021/03/01 10:22:13;;;;;;;6.70;2.40;;;;;;;;;;5003209;28;20033;-58
2021/03/01 10:24:42;;;;;;;6.63;2.47;;;;;;;;;;5023410;28;20048;-58
2021/03/01 10:27:08;;;;;;;8.20;2.75;;;;;;;;;;5003836;28;20091;-61
2021/03/01 10:29:37;;;;;;;3.92;2.70;;;;;;;;;;5019037;28;20051;-59
2021/03/01 10:32:17;;;;;;;6.63;2.60;;;;;;;;;;5023354;28;20024;-58
2021/03/01 10:34:45;;;;;;;4.85;2.67;;;;;;;;;;5022733;28;20455;-59
2021/03/01 10:37:13;;;;;;;5.22;2.42;;;;;;;;;;5006334;28;20923;-59
2021/03/01 10:39:48;;;;;;;3.58;2.35;;;;;;;;;;4989188;28;20120;-58
2021/03/01 10:42:15;;;;;;;3.22;1.80;;;;;;;;;;5007870;28;20056;-59
2021/03/01 10:44:41;;;;;;;8.70;2.90;;;;;;;;;;5004318;28;20797;-58
2021/03/01 10:47:12;;;;;;;3.05;2.08;;;;;;;;;;4999701;28;20123;-59
2021/03/01 10:49:38;;;;;;;3.92;2.30;;;;;;;;;;5022452;28;20064;-60
2021/03/01 10:52:07;;;;;;;2.20;1.50;;;;;;;;;;4990403;28;20107;-59
2021/03/01 10:54:33;;;;;;;5.20;1.70;;;;;;;;;;5021931;28;20524;-60
2021/03/01 10:56:58;;;;;;;2.65;1.27;;;;;;;;;;5005552;28;20159;-60
2021/03/01 10:59:26;;;;;;;4.97;2.13;;;;;;;;;;4987448;28;20091;-59
2021/03/01 11:01:54;;;;;;;5.47;1.90;;;;;;;;;;5000113;28;20112;-59
2021/03/01 11:04:20;;;;;;;6.40;2.08;;;;;;;;;;4998773;28;20036;-61
2021/03/01 11:06:46;;;;;;;6.78;2.03;;;;;;;;;;5001326;28;20083;-60
2021/03/01 11:09:15;;;;;;;5.82;2.03;;;;;;;;;;5003606;28;20034;-60
2021/03/01 11:11:41;;;;;;;3.70;2.13;;;;;;;;;;4987027;28;20060;-60
2021/03/01 11:14:07;;;;;;;5.93;1.90;;;;;;;;;;5003982;28;20115;-59
2021/03/01 11:16:33;;;;;;;4.55;1.40;;;;;;;;;;5004996;28;20052;-60
2021/03/01 11:19:01;;;;;;;4.75;1.80;;;;;;;;;;5002640;28;21122;-57
2021/03/01 11:21:27;;;;;;;3.15;1.42;;;;;;;;;;5021599;28;20029;-60
2021/03/01 11:23:53;;;;;;;2.92;1.23;;;;;;;;;;4988596;28;20041;-59
2021/03/01 11:26:19;;;;;;;1.60;1.45;;;;;;;;;;5003363;28;20041;-59
2021/03/01 11:28:49;;;;;;;2.53;1.30;;;;;;;;;;4984400;28;20425;-61
2021/03/01 11:31:15;;;;;;;2.80;1.50;;;;;;;;;;5023718;28;20100;-59
2021/03/01 11:33:42;;;;;;;2.22;1.17;;;;;;;;;;5023593;28;20029;-60
2021/03/01 11:36:10;;;;;;;1.40;1.10;;;;;;;;;;4988932;28;20029;-58
2021/03/01 11:38:42;;;;;;;1.85;1.40;;;;;;;;;;4993233;28;21238;-58
2021/03/01 11:41:14;;;;;;;5.30;1.67;;;;;;;;;;5005036;28;20187;-61
2021/03/01 11:43:40;;;;;;;5.65;1.13;;;;;;;;;;5023571;28;22158;-59
2021/03/01 11:46:06;;;;;;;1.13;0.90;;;;;;;;;;5003559;28;21246;-61
2021/03/01 11:48:34;;;;;;;2.60;1.00;;;;;;;;;;4981568;28;20029;-60
2021/03/01 11:51:00;;;;;;;5.35;1.10;;;;;;;;;;5005375;28;20495;-59
2021/03/01 11:53:27;;;;;;;2.80;1.13;;;;;;;;;;4986996;28;20052;-60
2021/03/01 11:55:53;;;;;;;2.35;1.25;;;;;;;;;;5012585;28;20124;-60
2021/03/01 11:58:19;;;;;;;2.63;1.27;;;;;;;;;;4994700;28;20266;-59
2021/03/01 12:00:46;;;;;;;2.25;1.10;;;;;;;;;;5015111;28;20037;-62
2021/03/01 12:03:12;;;;;;;4.15;1.23;;;;;;;;;;4992344;28;20035;-61
2021/03/01 12:05:40;;;;;;;2.95;1.30;;;;;;;;;;4997895;28;20040;-61
2021/03/01 12:08:07;;;;;;;2.22;1.48;;;;;;;;;;5009544;28;20174;-60
2021/03/01 12:10:37;;;;;;;2.08;1.30;;;;;;;;;;4999694;28;20041;-60
2021/03/01 12:13:07;;;;;;;1.90;1.15;;;;;;;;;;4994826;28;20040;-59
2021/03/01 12:15:33;;;;;;;1.65;0.98;;;;;;;;;;4972816;28;20033;-60
2021/03/01 12:18:01;;;;;;;1.95;1.13;;;;;;;;;;4996329;28;20136;-61
2021/03/01 12:20:26;;;;;;;1.23;1.13;;;;;;;;;;4966705;28;22500;-59
2021/03/01 12:22:54;;;;;;;2.78;1.85;;;;;;;;;;4977780;28;20131;-60
2021/03/01 12:25:24;;;;;;;1.30;1.05;;;;;;;;;;4992275;28;20021;-61
2021/03/01 12:27:55;;;;;;;4.38;1.58;;;;;;;;;;4990324;28;20025;-60
2021/03/01 12:30:25;;;;;;;2.35;1.50;;;;;;;;;;4990919;28;20036;-61
2021/03/01 12:32:51;;;;;;;3.33;1.40;;;;;;;;;;4990827;28;20119;-61
2021/03/01 12:35:17;;;;;;;2.45;1.10;;;;;;;;;;4979711;28;20030;-60
2021/03/01 12:37:45;;;;;;;1.58;1.15;;;;;;;;;;4992352;28;20045;-60
2021/03/01 12:40:11;;;;;;;2.78;1.20;;;;;;;;;;4972125;28;20065;-60
2021/03/01 12:42:45;;;;;;;2.97;1.20;;;;;;;;;;4989204;28;21899;-60
2021/03/01 12:45:10;;;;;;;1.60;1.23;;;;;;;;;;4989411;28;20157;-60
2021/03/01 12:47:36;;;;;;;8.70;1.85;;;;;;;;;;4997281;28;20052;-60
2021/03/01 12:50:02;;;;;;;1.50;1.10;;;;;;;;;;4959572;28;20813;-59
2021/03/01 12:52:30;;;;;;;3.05;1.67;;;;;;;;;;4994700;28;20033;-60
2021/03/01 12:54:56;;;;;;;3.90;1.60;;;;;;;;;;5001340;28;20132;-60
2021/03/01 12:57:24;;;;;;;3.45;1.20;;;;;;;;;;5000807;28;20626;-60
2021/03/01 12:59:51;;;;;;;2.10;1.15;;;;;;;;;;5017751;28;20029;-61
2021/03/01 13:02:18;;;;;;;2.00;1.48;;;;;;;;;;5002889;28;20144;-60
2021/03/01 13:04:46;;;;;;;2.78;1.05;;;;;;;;;;4998398;28;20084;-62
2021/03/01 13:07:14;;;;;;;3.85;1.65;;;;;;;;;;4983289;28;20041;-61
2021/03/01 13:09:42;;;;;;;2.30;1.40;;;;;;;;;;4993874;28;21446;-62
2021/03/01 13:12:11;;;;;;;5.25;1.52;;;;;;;;;;4973958;28;20045;-61
2021/03/01 13:14:37;;;;;;;1.63;1.10;;;;;;;;;;4985004;28;20026;-62
2021/03/01 13:17:02;;;;;;;4.07;2.03;;;;;;;;;;4992714;28;20095;-61
2021/03/01 13:19:30;;;;;;;7.72;4.10;;;;;;;;;;4974300;28;20045;-64
2021/03/01 13:21:56;;;;;;;2.60;1.60;;;;;;;;;;4976514;28;20037;-61
2021/03/01 13:24:21;;;;;;;3.88;1.98;;;;;;;;;;4996976;28;20057;-60
2021/03/01 13:26:47;;;;;;;3.78;2.08;;;;;;;;;;4983800;28;20034;-61
2021/03/01 13:29:15;;;;;;;9.30;2.10;;;;;;;;;;4993356;28;20069;-60
2021/03/01 13:31:43;;;;;;;4.82;2.03;;;;;;;;;;4994617;28;20025;-60
2021/03/01 13:34:08;;;;;;;5.97;2.70;;;;;;;;;;5004515;28;20107;-60
2021/03/01 13:36:38;;;;;;;4.13;2.53;;;;;;;;;;4985321;28;20427;-60
2021/03/01 13:39:06;;;;;;;6.30;3.10;;;;;;;;;;4999800;28;20033;-61
2021/03/01 13:41:36;;;;;;;5.72;2.90;;;;;;;;;;4996061;28;20382;-63
2021/03/01 13:44:03;;;;;;;4.93;2.50;;;;;;;;;;4988972;28;20048;-62
2021/03/01 13:46:29;;;;;;;4.50;2.60;;;;;;;;;;5001711;28;20042;-62
2021/03/01 13:48:57;;;;;;;7.13;3.85;;;;;;;;;;4999751;28;20037;-60
2021/03/01 13:51:25;;;;;;;6.03;3.00;;;;;;;;;;4998137;28;20906;-61
2021/03/01 13:53:56;;;;;;;5.47;2.80;;;;;;;;;;5007446;28;20061;-60
2021/03/01 13:56:22;;;;;;;4.10;2.58;;;;;;;;;;5000591;28;20033;-62
2021/03/01 13:58:50;;;;;;;3.95;2.50;;;;;;;;;;4975235;28;20049;-60
2021/03/01 14:01:21;;;;;;;7.32;3.83;;;;;;;;;;4994868;28;20026;-60
2021/03/01 14:03:47;;;;;;;7.63;4.43;;;;;;;;;;4994369;28;20029;-61
2021/03/01 14:06:13;;;;;;;10.88;5.82;;;;;;;;;;4991797;28;20070;-65
2021/03/01 14:08:38;;;;;;;4.28;2.45;;;;;;;;;;5000784;28;20542;-63
2021/03/01 14:11:03;;;;;;;4.25;2.60;;;;;;;;;;4992756;28;20045;-65
2021/03/01 14:13:31;;;;;;;5.47;3.10;;;;;;;;;;4997910;28;20378;-63
2021/03/01 14:15:57;;;;;;;11.80;6.03;;;;;;;;;;4998247;28;20061;-62
2021/03/01 14:18:22;;;;;;;12.15;7.15;;;;;;;;;;4992211;28;20095;-65
2021/03/01 14:20:53;;;;;;;9.13;5.72;;;;;;;;;;4977777;28;20144;-61
2021/03/01 14:23:22;;;;;;;7.10;4.57;;;;;;;;;;4990447;28;20029;-61
2021/03/01 14:25:48;;;;;;;9.45;4.95;;;;;;;;;;4994042;28;20040;-66
2021/03/01 14:28:18;;;;;;;8.45;5.00;;;;;;;;;;4996643;28;20052;-63
2021/03/01 14:30:45;;;;;;;9.70;4.93;;;;;;;;;;4993083;28;20103;-61
2021/03/01 14:33:16;;;;;;;9.52;4.88;;;;;;;;;;4995039;28;20041;-61
2021/03/01 14:35:44;;;;;;;6.47;4.20;;;;;;;;;;4992680;28;20037;-61
2021/03/01 14:38:10;;;;;;;6.75;4.10;;;;;;;;;;4995636;28;20033;-61
2021/03/01 14:40:36;;;;;;;5.63;3.70;;;;;;;;;;4986666;28;20027;-65
2021/03/01 14:43:01;;;;;;;8.93;2.92;;;;;;;;;;5004496;28;20726;-64